createdAt,value
2023-04-26T00:00:11.938Z,13.90
2023-04-26T00:00:45.887Z,14.50
2023-04-26T00:01:05.419Z,14.55
2023-04-26T00:01:18.976Z,16.35
2023-04-26T00:01:31.924Z,14.35
2023-04-26T00:01:44.813Z,12.65
2023-04-26T00:01:58.772Z,13.70
2023-04-26T00:02:11.918Z,15.15
2023-04-26T00:02:25.039Z,14.75
2023-04-26T00:02:38.006Z,14.35
2023-04-26T00:02:51.095Z,14.85
2023-04-26T00:03:04.609Z,15.18
2023-04-26T00:03:19.041Z,13.77
2023-04-26T00:03:32.828Z,14.52
2023-04-26T00:03:45.985Z,15.27
2023-04-26T00:03:58.866Z,13.43
2023-04-26T00:04:11.718Z,13.68
2023-04-26T00:04:25.096Z,14.25
2023-04-26T00:04:38.348Z,14.23
2023-04-26T00:04:55.887Z,13.23
2023-04-26T00:05:09.954Z,12.90
2023-04-26T00:05:23.054Z,12.75
2023-04-26T00:05:37.504Z,13.20
2023-04-26T00:05:50.781Z,14.20
2023-04-26T00:06:06.647Z,15.23
2023-04-26T00:06:19.230Z,15.25
2023-04-26T00:06:31.833Z,14.70
2023-04-26T00:06:44.414Z,13.25
2023-04-26T00:06:57.092Z,12.45
2023-04-26T00:07:09.718Z,12.73
2023-04-26T00:07:23.620Z,14.35
2023-04-26T00:07:38.177Z,13.38
2023-04-26T00:07:50.859Z,13.85
2023-04-26T00:08:04.303Z,16.30
2023-04-26T00:08:16.898Z,16.25
2023-04-26T00:08:29.961Z,16.05
2023-04-26T00:08:43.323Z,14.90
2023-04-26T00:08:56.239Z,14.45
2023-04-26T00:09:10.607Z,14.25
2023-04-26T00:09:23.236Z,14.18
2023-04-26T00:09:35.794Z,13.50
2023-04-26T00:09:48.560Z,13.88
2023-04-26T00:10:01.176Z,14.18
2023-04-26T00:10:13.778Z,12.98
2023-04-26T00:10:26.342Z,12.98
2023-04-26T00:10:40.765Z,12.75
2023-04-26T00:10:53.502Z,12.55
2023-04-26T00:11:06.140Z,12.48
2023-04-26T00:11:18.912Z,12.65
2023-04-26T00:11:31.596Z,12.60
2023-04-26T00:11:44.227Z,11.38
2023-04-26T00:11:56.781Z,11.82
2023-04-26T00:12:11.847Z,12.43
2023-04-26T00:12:25.401Z,12.00
2023-04-26T00:12:38.145Z,13.35
2023-04-26T00:12:50.722Z,16.08
2023-04-26T00:13:03.710Z,17.90
2023-04-26T00:13:16.254Z,15.30
2023-04-26T00:13:29.815Z,13.43
2023-04-26T00:13:42.441Z,13.48
2023-04-26T00:13:55.027Z,14.45
2023-04-26T00:14:07.806Z,13.52
2023-04-26T00:14:20.458Z,11.88
2023-04-26T00:14:34.056Z,12.48
2023-04-26T00:14:46.673Z,15.45
2023-04-26T00:14:59.273Z,15.57
2023-04-26T00:15:14.292Z,15.18
2023-04-26T00:15:26.922Z,13.95
2023-04-26T00:15:39.478Z,14.18
2023-04-26T00:15:52.066Z,13.75
2023-04-26T00:16:05.276Z,12.60
2023-04-26T00:16:18.599Z,12.02
2023-04-26T00:16:32.499Z,12.57
2023-04-26T00:16:45.197Z,12.57
2023-04-26T00:16:57.970Z,13.25
2023-04-26T00:17:10.691Z,13.88
2023-04-26T00:17:24.044Z,12.23
2023-04-26T00:17:36.828Z,9.98
2023-04-26T00:17:50.759Z,11.35
2023-04-26T00:18:04.468Z,12.85
2023-04-26T00:18:17.647Z,14.43
2023-04-26T00:18:30.374Z,14.27
2023-04-26T00:18:43.312Z,14.25
2023-04-26T00:18:56.677Z,14.00
2023-04-26T00:19:09.952Z,12.45
2023-04-26T00:19:23.330Z,14.07
2023-04-26T00:19:35.944Z,15.02
2023-04-26T00:19:49.520Z,13.43
2023-04-26T00:20:02.514Z,13.02
2023-04-26T00:20:15.684Z,13.25
2023-04-26T00:20:28.367Z,12.93
2023-04-26T00:20:41.477Z,11.82
2023-04-26T00:20:54.220Z,11.48
2023-04-26T00:21:07.127Z,10.65
2023-04-26T00:21:20.700Z,10.85
2023-04-26T00:21:33.649Z,12.13
2023-04-26T00:21:46.433Z,12.57
2023-04-26T00:21:59.274Z,13.23
2023-04-26T00:22:11.959Z,13.30
2023-04-26T00:22:25.520Z,12.30
2023-04-26T00:22:38.080Z,10.85
2023-04-26T00:22:51.780Z,12.18
2023-04-26T00:23:04.714Z,13.40
2023-04-26T00:23:17.416Z,14.35
2023-04-26T00:23:30.303Z,14.07
2023-04-26T00:23:43.156Z,13.68
2023-04-26T00:23:56.012Z,11.55
2023-04-26T00:24:08.956Z,13.00
2023-04-26T00:24:22.764Z,14.30
2023-04-26T00:24:35.859Z,12.40
2023-04-26T00:24:48.747Z,11.93
2023-04-26T00:25:01.344Z,12.45
2023-04-26T00:25:14.127Z,12.75
2023-04-26T00:25:27.001Z,12.57
2023-04-26T00:25:40.834Z,12.95
2023-04-26T00:25:53.412Z,14.02
2023-04-26T00:26:06.255Z,14.00
2023-04-26T00:26:18.857Z,14.45
2023-04-26T00:26:32.072Z,13.63
2023-04-26T00:26:44.900Z,12.32
2023-04-26T00:26:57.573Z,10.52
2023-04-26T00:27:10.770Z,13.35
2023-04-26T00:27:24.482Z,13.90
2023-04-26T00:27:37.076Z,15.50
2023-04-26T00:27:50.067Z,14.15
2023-04-26T00:28:02.841Z,13.55
2023-04-26T00:28:15.931Z,14.05
2023-04-26T00:28:30.196Z,12.60
2023-04-26T00:28:42.806Z,13.88
2023-04-26T00:28:55.430Z,14.77
2023-04-26T00:29:08.091Z,13.02
2023-04-26T00:29:20.684Z,11.20
2023-04-26T00:29:34.504Z,12.18
2023-04-26T00:29:47.121Z,11.18
2023-04-26T00:30:00.715Z,12.32
2023-04-26T00:30:15.592Z,14.30
2023-04-26T00:30:28.545Z,13.65
2023-04-26T00:30:47.766Z,14.52
2023-04-26T00:31:00.556Z,15.93
2023-04-26T00:33:34.943Z,13.38
2023-04-26T00:33:48.695Z,12.38
2023-04-26T00:34:01.632Z,13.52
2023-04-26T00:34:14.509Z,13.23
2023-04-26T00:34:32.451Z,14.57
2023-04-26T00:34:45.066Z,14.88
2023-04-26T00:34:57.668Z,13.80
2023-04-26T00:35:10.923Z,14.27
2023-04-26T00:35:24.769Z,15.10
2023-04-26T00:35:38.246Z,14.73
2023-04-26T00:35:50.881Z,13.60
2023-04-26T00:36:03.698Z,15.18
2023-04-26T00:36:19.285Z,15.10
2023-04-26T00:36:32.746Z,13.50
2023-04-26T00:36:46.110Z,13.35
2023-04-26T00:36:58.710Z,14.23
2023-04-26T00:37:12.279Z,13.02
2023-04-26T00:37:25.008Z,12.57
2023-04-26T00:37:37.727Z,12.18
2023-04-26T00:37:50.830Z,11.57
2023-04-26T00:38:03.437Z,12.23
2023-04-26T00:38:16.082Z,12.90
2023-04-26T00:38:28.645Z,12.95
2023-04-26T00:38:42.402Z,13.73
2023-04-26T00:38:55.175Z,13.98
2023-04-26T00:39:08.823Z,12.55
2023-04-26T00:39:22.311Z,11.45
2023-04-26T00:39:34.914Z,12.48
2023-04-26T00:39:47.590Z,13.30
2023-04-26T00:40:01.207Z,12.95
2023-04-26T00:40:16.194Z,14.13
2023-04-26T00:40:28.823Z,13.73
2023-04-26T00:40:41.485Z,12.35
2023-04-26T00:40:54.073Z,13.05
2023-04-26T00:41:06.676Z,13.00
2023-04-26T00:41:19.317Z,15.95
2023-04-26T00:41:32.205Z,17.17
2023-04-26T00:41:46.199Z,14.20
2023-04-26T00:41:58.835Z,11.68
2023-04-26T00:42:11.774Z,10.95
2023-04-26T00:42:24.549Z,11.43
2023-04-26T00:42:38.702Z,11.40
2023-04-26T00:43:01.150Z,12.27
2023-04-26T00:43:15.038Z,15.85
2023-04-26T00:43:27.867Z,16.23
2023-04-26T00:43:41.135Z,17.85
2023-04-26T00:45:44.700Z,15.25
2023-04-26T00:45:59.085Z,12.27
2023-04-26T00:46:12.489Z,12.27
2023-04-26T00:46:25.442Z,13.35
2023-04-26T00:46:38.182Z,12.70
2023-04-26T00:46:52.718Z,12.52
2023-04-26T00:47:06.260Z,13.27
2023-04-26T00:47:19.867Z,12.93
2023-04-26T00:47:32.884Z,13.68
2023-04-26T00:47:45.526Z,13.80
2023-04-26T00:47:59.104Z,12.88
2023-04-26T00:48:13.008Z,13.60
2023-04-26T00:48:26.342Z,14.45
2023-04-26T00:48:39.007Z,15.05
2023-04-26T00:48:53.359Z,15.50
2023-04-26T00:49:06.212Z,13.15
2023-04-26T00:49:21.920Z,15.38
2023-04-26T00:49:34.752Z,16.67
2023-04-26T00:49:47.808Z,15.63
2023-04-26T00:50:01.763Z,14.55
2023-04-26T00:50:19.002Z,12.50
2023-04-26T00:50:33.667Z,11.82
2023-04-26T00:52:38.906Z,11.73
2023-04-26T00:52:51.878Z,11.68
2023-04-26T00:53:04.911Z,13.02
2023-04-26T00:53:23.894Z,13.85
2023-04-26T00:53:37.956Z,13.13
2023-04-26T00:53:50.952Z,12.15
2023-04-26T00:54:03.825Z,12.38
2023-04-26T00:54:16.807Z,13.20
2023-04-26T00:54:29.677Z,13.10
2023-04-26T00:54:42.815Z,11.95
2023-04-26T00:54:57.610Z,12.30
2023-04-26T00:55:10.848Z,14.45
2023-04-26T00:55:24.042Z,15.43
2023-04-26T00:55:36.989Z,13.13
2023-04-26T00:55:51.568Z,12.85
2023-04-26T00:56:07.170Z,14.60
2023-04-26T00:56:22.416Z,15.02
2023-04-26T00:56:36.478Z,15.68
2023-04-26T00:56:52.074Z,15.75
2023-04-26T00:57:07.238Z,13.10
2023-04-26T00:57:20.452Z,11.98
2023-04-26T00:57:33.220Z,12.48
2023-04-26T00:57:47.203Z,13.73
2023-04-26T00:57:59.902Z,15.50
2023-04-26T00:58:12.688Z,16.63
2023-04-26T00:58:25.983Z,15.90
2023-04-26T00:58:39.405Z,14.02
2023-04-26T00:58:52.480Z,13.40
2023-04-26T00:59:05.714Z,13.25
2023-04-26T00:59:19.735Z,14.23
2023-04-26T00:59:34.766Z,14.50
2023-04-26T00:59:47.442Z,13.55
2023-04-26T01:00:00.087Z,15.50
2023-04-26T01:00:13.855Z,14.75
2023-04-26T01:00:26.839Z,14.25
2023-04-26T01:00:39.484Z,14.48
2023-04-26T01:00:52.459Z,13.35
2023-04-26T01:01:08.218Z,12.43
2023-04-26T01:01:21.814Z,13.32
2023-04-26T01:01:35.663Z,15.38
2023-04-26T01:01:49.113Z,16.17
2023-04-26T01:02:03.005Z,14.02
2023-04-26T01:02:16.343Z,13.70
2023-04-26T01:02:29.366Z,13.88
2023-04-26T01:02:42.532Z,14.60
2023-04-26T01:02:56.648Z,16.20
2023-04-26T01:03:09.577Z,14.50
2023-04-26T01:03:22.549Z,12.45
2023-04-26T01:03:35.580Z,11.32
2023-04-26T01:03:49.055Z,11.88
2023-04-26T01:04:02.397Z,13.38
2023-04-26T01:04:15.967Z,12.25
2023-04-26T01:04:30.354Z,11.40
2023-04-26T01:04:45.424Z,11.52
2023-04-26T01:04:58.031Z,12.10
2023-04-26T01:05:11.220Z,11.45
2023-04-26T01:05:23.955Z,10.90
2023-04-26T01:05:36.804Z,11.32
2023-04-26T01:05:49.676Z,11.85
2023-04-26T01:06:02.268Z,10.26
2023-04-26T01:06:15.916Z,11.27
2023-04-26T01:06:34.105Z,13.25
2023-04-26T01:06:47.301Z,12.48
2023-04-26T01:07:00.616Z,12.52
2023-04-26T01:07:13.541Z,11.93
2023-04-26T01:07:26.170Z,13.02
2023-04-26T01:07:38.998Z,13.88
2023-04-26T01:07:53.508Z,14.50
2023-04-26T01:08:06.988Z,14.25
2023-04-26T01:08:21.267Z,14.35
2023-04-26T01:08:34.772Z,13.88
2023-04-26T01:08:47.351Z,16.58
2023-04-26T01:09:03.037Z,15.77
2023-04-26T01:09:16.278Z,13.82
2023-04-26T01:09:32.751Z,14.48
2023-04-26T01:09:45.365Z,14.50
2023-04-26T01:09:59.561Z,15.75
2023-04-26T01:10:12.274Z,16.02
2023-04-26T01:10:25.622Z,13.18
2023-04-26T01:10:41.139Z,13.13
2023-04-26T01:10:54.659Z,15.93
2023-04-26T01:11:07.542Z,17.83
2023-04-26T01:11:22.426Z,16.05
2023-04-26T01:11:36.092Z,14.07
2023-04-26T01:11:49.348Z,14.55
2023-04-26T01:12:03.772Z,15.20
2023-04-26T01:12:17.266Z,13.90
2023-04-26T01:12:30.043Z,13.80
2023-04-26T01:12:42.658Z,15.55
2023-04-26T01:12:55.568Z,15.20
2023-04-26T01:13:08.536Z,14.68
2023-04-26T01:13:21.163Z,14.80
2023-04-26T01:13:35.359Z,14.88
2023-04-26T01:13:48.531Z,14.80
2023-04-26T01:14:02.187Z,17.58
2023-04-26T01:14:15.906Z,16.88
2023-04-26T01:14:29.407Z,13.02
2023-04-26T01:14:43.873Z,13.45
2023-04-26T01:14:58.534Z,13.93
2023-04-26T01:15:11.962Z,12.55
2023-04-26T01:15:24.969Z,12.90
2023-04-26T01:15:37.963Z,12.90
2023-04-26T01:15:51.001Z,12.48
2023-04-26T01:16:08.857Z,11.85
2023-04-26T01:16:21.941Z,12.95
2023-04-26T01:16:35.825Z,14.23
2023-04-26T01:16:49.159Z,15.23
2023-04-26T01:17:02.907Z,14.15
2023-04-26T01:17:15.624Z,15.48
2023-04-26T01:17:28.465Z,16.30
2023-04-26T01:17:42.121Z,13.90
2023-04-26T01:17:54.856Z,12.68
2023-04-26T01:18:07.553Z,12.93
2023-04-26T01:18:20.422Z,12.52
2023-04-26T01:18:33.042Z,14.30
2023-04-26T01:18:52.406Z,12.52
2023-04-26T01:19:11.068Z,11.02
2023-04-26T01:19:25.948Z,13.43
2023-04-26T01:19:47.836Z,13.73
2023-04-26T01:20:00.803Z,13.70
2023-04-26T01:20:14.447Z,13.43
2023-04-26T01:20:27.170Z,12.38
2023-04-26T01:20:40.081Z,12.15
2023-04-26T01:20:54.093Z,13.35
2023-04-26T01:21:06.742Z,12.18
2023-04-26T01:21:21.738Z,12.63
2023-04-26T01:21:34.566Z,15.77
2023-04-26T01:21:47.172Z,16.45
2023-04-26T01:21:59.776Z,14.02
2023-04-26T01:22:12.448Z,12.32
2023-04-26T01:22:26.028Z,11.30
2023-04-26T01:22:39.975Z,13.57
2023-04-26T01:22:52.600Z,13.65
2023-04-26T01:23:06.375Z,14.77
2023-04-26T01:23:19.087Z,13.77
2023-04-26T01:23:32.148Z,13.20
2023-04-26T01:24:49.847Z,13.63
2023-04-26T01:25:07.759Z,12.82
2023-04-26T01:25:21.194Z,11.27
2023-04-26T01:25:34.403Z,11.50
2023-04-26T01:25:47.587Z,13.27
2023-04-26T01:26:00.103Z,12.02
2023-04-26T01:26:12.708Z,10.60
2023-04-26T01:26:25.294Z,11.18
2023-04-26T01:26:44.104Z,11.60
2023-04-26T01:26:57.821Z,10.00
2023-04-26T01:27:10.553Z,10.00
2023-04-26T01:27:23.388Z,11.48
2023-04-26T01:27:36.122Z,12.85
2023-04-26T01:27:49.631Z,11.93
2023-04-26T01:28:02.401Z,11.68
2023-04-26T01:28:14.975Z,11.77
2023-04-26T01:28:27.494Z,12.23
2023-04-26T01:28:39.984Z,11.57
2023-04-26T01:28:52.760Z,11.25
2023-04-26T01:29:13.787Z,12.63
2023-04-26T01:29:28.179Z,11.38
2023-04-26T01:29:40.766Z,10.95
2023-04-26T01:29:54.042Z,12.20
2023-04-26T01:30:08.397Z,12.45
2023-04-26T01:30:21.081Z,12.18
2023-04-26T01:30:33.624Z,12.93
2023-04-26T01:30:46.193Z,11.88
2023-04-26T01:30:59.994Z,13.00
2023-04-26T01:31:12.900Z,14.63
2023-04-26T01:31:25.560Z,15.48
2023-04-26T01:31:38.129Z,16.02
2023-04-26T01:31:50.689Z,13.88
2023-04-26T01:32:03.527Z,12.52
2023-04-26T01:32:16.307Z,12.55
2023-04-26T01:32:28.943Z,13.68
2023-04-26T01:32:42.522Z,13.20
2023-04-26T01:32:55.461Z,13.68
2023-04-26T01:33:08.221Z,12.30
2023-04-26T01:33:20.759Z,11.40
2023-04-26T01:33:33.310Z,10.75
2023-04-26T01:33:45.982Z,10.57
2023-04-26T01:33:58.482Z,12.75
2023-04-26T01:34:11.094Z,13.20
2023-04-26T01:34:24.698Z,13.38
2023-04-26T01:34:37.448Z,13.00
2023-04-26T01:34:49.950Z,12.20
2023-04-26T01:35:02.618Z,11.65
2023-04-26T01:35:15.329Z,12.40
2023-04-26T01:35:27.895Z,12.27
2023-04-26T01:35:40.421Z,12.88
2023-04-26T01:35:54.062Z,12.27
2023-04-26T01:36:09.473Z,14.75
2023-04-26T01:36:21.994Z,14.38
2023-04-26T01:36:34.656Z,12.70
2023-04-26T01:36:47.184Z,13.68
2023-04-26T01:37:00.566Z,12.57
2023-04-26T01:37:14.213Z,12.73
2023-04-26T01:37:26.841Z,13.40
2023-04-26T01:37:40.709Z,13.40
2023-04-26T01:37:53.368Z,11.80
2023-04-26T01:38:06.164Z,11.50
2023-04-26T01:38:20.115Z,11.77
2023-04-26T01:38:32.718Z,13.52
2023-04-26T01:38:45.270Z,13.40
2023-04-26T01:38:58.033Z,12.68
2023-04-26T01:39:11.746Z,12.85
2023-04-26T01:39:24.255Z,12.10
2023-04-26T01:39:36.982Z,10.70
2023-04-26T01:39:49.534Z,12.73
2023-04-26T01:40:02.167Z,13.82
2023-04-26T01:40:14.725Z,12.07
2023-04-26T01:40:27.280Z,10.90
2023-04-26T01:40:39.839Z,11.77
2023-04-26T01:40:53.337Z,12.88
2023-04-26T01:41:06.037Z,13.18
2023-04-26T01:41:18.563Z,14.73
2023-04-26T01:41:31.114Z,14.35
2023-04-26T01:41:43.686Z,13.85
2023-04-26T01:41:58.529Z,14.45
2023-04-26T01:42:12.100Z,14.77
2023-04-26T01:42:24.629Z,14.10
2023-04-26T01:42:37.166Z,13.93
2023-04-26T01:42:49.726Z,11.98
2023-04-26T01:43:03.310Z,11.70
2023-04-26T01:43:18.426Z,14.07
2023-04-26T01:43:30.962Z,13.55
2023-04-26T01:43:44.432Z,12.95
2023-04-26T01:43:56.949Z,12.52
2023-04-26T01:44:09.549Z,13.32
2023-04-26T01:44:22.092Z,13.68
2023-04-26T01:44:34.648Z,13.88
2023-04-26T01:44:47.419Z,13.65
2023-04-26T01:44:59.996Z,14.13
2023-04-26T01:45:13.531Z,12.52
2023-04-26T01:45:26.167Z,13.18
2023-04-26T01:45:39.065Z,13.48
2023-04-26T01:45:51.584Z,14.57
2023-04-26T01:46:04.200Z,13.15
2023-04-26T01:46:20.115Z,12.35
2023-04-26T01:46:32.766Z,11.48
2023-04-26T01:46:45.480Z,10.75
2023-04-26T01:46:59.006Z,12.07
2023-04-26T01:47:11.578Z,13.07
2023-04-26T01:47:25.884Z,12.55
2023-04-26T01:47:38.493Z,11.73
2023-04-26T01:47:51.148Z,12.30
2023-04-26T01:48:03.803Z,12.75
2023-04-26T01:48:16.657Z,11.35
2023-04-26T01:48:29.357Z,11.80
2023-04-26T01:48:43.048Z,12.77
2023-04-26T01:48:55.611Z,12.82
2023-04-26T01:49:08.214Z,11.95
2023-04-26T01:49:21.078Z,11.40
2023-04-26T01:49:33.717Z,11.38
2023-04-26T01:49:46.341Z,11.13
2023-04-26T01:49:58.888Z,11.00
2023-04-26T01:50:12.923Z,11.70
2023-04-26T01:50:25.830Z,13.60
2023-04-26T01:50:38.348Z,14.70
2023-04-26T01:50:51.017Z,13.82
2023-04-26T01:51:03.616Z,11.98
2023-04-26T01:51:16.731Z,12.07
2023-04-26T01:51:30.415Z,13.02
2023-04-26T01:51:43.078Z,12.50
2023-04-26T01:51:55.865Z,12.90
2023-04-26T01:52:08.439Z,12.15
2023-04-26T01:52:22.927Z,12.07
2023-04-26T01:52:35.419Z,11.27
2023-04-26T01:52:50.297Z,11.82
2023-04-26T01:53:03.140Z,12.95
2023-04-26T01:53:15.668Z,11.80
2023-04-26T01:53:28.249Z,10.13
2023-04-26T01:53:40.829Z,11.50
2023-04-26T01:53:53.493Z,11.95
2023-04-26T01:54:06.845Z,9.70
2023-04-26T01:54:19.336Z,12.90
2023-04-26T01:54:32.893Z,12.88
2023-04-26T01:54:45.853Z,13.02
2023-04-26T01:54:58.394Z,11.93
2023-04-26T01:55:11.176Z,10.55
2023-04-26T01:55:23.724Z,10.57
2023-04-26T01:55:36.241Z,11.65
2023-04-26T01:55:48.816Z,12.18
2023-04-26T01:56:01.904Z,10.95
2023-04-26T01:56:16.155Z,10.18
2023-04-26T01:56:28.691Z,11.95
2023-04-26T01:56:41.550Z,12.32
2023-04-26T01:56:54.176Z,13.40
2023-04-26T01:57:06.870Z,13.32
2023-04-26T01:57:19.426Z,11.95
2023-04-26T01:57:31.968Z,10.57
2023-04-26T01:57:45.477Z,9.85
2023-04-26T01:57:58.049Z,9.25
2023-04-26T01:58:10.771Z,10.00
2023-04-26T01:58:23.337Z,11.35
2023-04-26T01:58:35.824Z,11.80
2023-04-26T01:58:48.417Z,11.48
2023-04-26T01:59:01.950Z,13.50
2023-04-26T01:59:14.538Z,13.93
2023-04-26T01:59:27.076Z,12.70
2023-04-26T01:59:39.621Z,12.18
2023-04-26T01:59:52.113Z,12.23
2023-04-26T02:00:06.103Z,10.65
2023-04-26T02:00:19.226Z,10.85
2023-04-26T02:00:32.587Z,12.18
2023-04-26T02:00:46.082Z,13.50
2023-04-26T02:01:07.043Z,12.55
2023-04-26T02:01:19.592Z,10.63
2023-04-26T02:01:32.521Z,10.75
2023-04-26T02:01:45.207Z,9.98
2023-04-26T02:01:58.760Z,11.90
2023-04-26T02:02:11.486Z,11.95
2023-04-26T02:02:24.145Z,9.80
2023-04-26T02:02:36.737Z,10.23
2023-04-26T02:02:49.714Z,9.77
2023-04-26T02:03:02.486Z,12.23
2023-04-26T02:03:15.470Z,10.80
2023-04-26T02:03:28.286Z,9.45
2023-04-26T02:03:40.966Z,10.88
2023-04-26T02:03:54.579Z,12.25
2023-04-26T02:04:07.197Z,10.63
2023-04-26T02:04:20.480Z,8.85
2023-04-26T02:04:33.019Z,10.18
2023-04-26T02:04:45.591Z,9.77
2023-04-26T02:04:58.197Z,9.10
2023-04-26T02:05:12.461Z,8.10
2023-04-26T02:05:25.313Z,10.20
2023-04-26T02:05:38.029Z,11.68
2023-04-26T02:05:50.690Z,9.85
2023-04-26T02:06:03.498Z,9.02
2023-04-26T02:06:16.037Z,10.60
2023-04-26T02:06:28.585Z,11.02
2023-04-26T02:06:42.727Z,10.32
2023-04-26T02:06:55.416Z,8.93
2023-04-26T02:07:08.017Z,9.32
2023-04-26T02:07:20.740Z,10.23
2023-04-26T02:07:33.231Z,10.52
2023-04-26T02:07:45.729Z,9.23
2023-04-26T02:07:59.934Z,10.55
2023-04-26T02:08:12.758Z,12.15
2023-04-26T02:08:25.295Z,11.63
2023-04-26T02:08:38.843Z,11.27
2023-04-26T02:08:51.666Z,11.48
2023-04-26T02:09:04.548Z,11.35
2023-04-26T02:09:17.108Z,11.73
2023-04-26T02:09:29.613Z,9.40
2023-04-26T02:09:42.430Z,9.52
2023-04-26T02:09:54.956Z,10.38
2023-04-26T02:10:10.018Z,10.75
2023-04-26T02:10:22.557Z,10.93
2023-04-26T02:10:35.084Z,11.13
2023-04-26T02:10:47.606Z,9.05
2023-04-26T02:11:00.441Z,8.68
2023-04-26T02:11:13.174Z,11.40
2023-04-26T02:11:27.045Z,11.80
2023-04-26T02:11:39.943Z,9.38
2023-04-26T02:11:52.470Z,9.00
2023-04-26T02:12:06.221Z,10.10
2023-04-26T02:12:18.890Z,11.35
2023-04-26T02:12:32.108Z,12.98
2023-04-26T02:12:44.650Z,12.02
2023-04-26T02:12:57.168Z,11.68
2023-04-26T02:13:09.727Z,12.18
2023-04-26T02:13:22.301Z,10.75
2023-04-26T02:13:35.823Z,10.30
2023-04-26T02:13:48.362Z,10.40
2023-04-26T02:14:00.928Z,9.90
2023-04-26T02:14:13.509Z,10.43
2023-04-26T02:14:26.152Z,9.75
2023-04-26T02:14:38.685Z,9.98
2023-04-26T02:14:51.327Z,10.95
2023-04-26T02:15:05.173Z,11.10
2023-04-26T02:15:17.821Z,12.45
2023-04-26T02:15:31.041Z,13.23
2023-04-26T02:15:46.593Z,14.02
2023-04-26T02:15:59.497Z,11.80
2023-04-26T02:16:12.176Z,10.57
2023-04-26T02:16:25.780Z,11.77
2023-04-26T02:16:40.396Z,12.07
2023-04-26T02:16:52.978Z,11.20
2023-04-26T02:17:06.768Z,10.57
2023-04-26T02:17:21.352Z,9.82
2023-04-26T02:17:34.097Z,10.65
2023-04-26T02:17:46.956Z,11.85
2023-04-26T02:18:00.074Z,12.23
2023-04-26T02:18:13.852Z,12.73
2023-04-26T02:18:26.834Z,11.13
2023-04-26T02:18:39.369Z,10.25
2023-04-26T02:18:53.641Z,10.25
2023-04-26T02:19:10.874Z,10.52
2023-04-26T02:19:24.487Z,10.82
2023-04-26T02:19:37.049Z,11.30
2023-04-26T02:19:49.631Z,10.98
2023-04-26T02:20:02.165Z,13.95
2023-04-26T02:20:15.065Z,13.82
2023-04-26T02:20:27.585Z,13.80
2023-04-26T02:20:43.103Z,11.07
2023-04-26T02:20:56.916Z,9.80
2023-04-26T02:21:11.709Z,10.60
2023-04-26T02:21:24.192Z,9.63
2023-04-26T02:21:51.953Z,8.93
2023-04-26T02:22:06.398Z,9.90
2023-04-26T02:22:19.012Z,9.70
2023-04-26T02:22:32.531Z,9.18
2023-04-26T02:22:45.101Z,10.40
2023-04-26T02:22:59.678Z,11.35
2023-04-26T02:23:12.543Z,10.23
2023-04-26T02:23:25.071Z,9.18
2023-04-26T02:23:37.594Z,9.02
2023-04-26T02:23:50.382Z,11.35
2023-04-26T02:24:04.010Z,13.40
2023-04-26T02:24:16.942Z,12.05
2023-04-26T02:24:30.965Z,10.30
2023-04-26T02:24:44.355Z,8.80
2023-04-26T02:24:57.097Z,9.75
2023-04-26T02:25:09.939Z,11.68
2023-04-26T02:25:22.478Z,12.23
2023-04-26T02:25:35.196Z,12.32
2023-04-26T02:25:49.955Z,13.05
2023-04-26T02:26:03.352Z,12.32
2023-04-26T02:26:16.043Z,12.57
2023-04-26T02:26:28.642Z,12.32
2023-04-26T02:26:41.606Z,11.00
2023-04-26T02:26:54.822Z,9.93
2023-04-26T02:27:08.531Z,10.13
2023-04-26T02:27:21.063Z,11.85
2023-04-26T02:27:33.802Z,11.60
2023-04-26T02:27:46.651Z,9.82
2023-04-26T02:27:59.192Z,8.85
2023-04-26T02:28:11.784Z,9.40
2023-04-26T02:28:24.269Z,8.45
2023-04-26T02:28:36.985Z,10.18
2023-04-26T02:28:49.590Z,11.32
2023-04-26T02:29:03.201Z,11.52
2023-04-26T02:29:15.805Z,10.40
2023-04-26T02:29:42.310Z,10.35
2023-04-26T02:29:56.021Z,12.70
2023-04-26T02:30:09.405Z,11.50
2023-04-26T02:30:22.273Z,9.02
2023-04-26T02:30:35.774Z,9.20
2023-04-26T02:30:48.391Z,10.43
2023-04-26T02:31:02.844Z,9.52
2023-04-26T02:31:15.453Z,9.10
2023-04-26T02:31:29.213Z,9.98
2023-04-26T02:31:41.792Z,8.98
2023-04-26T02:31:54.404Z,8.95
2023-04-26T02:32:08.005Z,9.57
2023-04-26T02:32:20.675Z,10.43
2023-04-26T02:32:33.299Z,11.23
2023-04-26T02:32:46.180Z,10.82
2023-04-26T02:32:58.834Z,9.15
2023-04-26T02:33:11.469Z,8.63
2023-04-26T02:33:24.976Z,8.75
2023-04-26T02:33:37.612Z,8.55
2023-04-26T02:33:50.103Z,8.90
2023-04-26T02:34:02.909Z,10.25
2023-04-26T02:34:15.461Z,12.65
2023-04-26T02:34:28.123Z,11.75
2023-04-26T02:34:40.789Z,10.25
2023-04-26T02:34:54.334Z,9.13
2023-04-26T02:35:07.816Z,10.13
2023-04-26T02:35:20.596Z,10.93
2023-04-26T02:35:33.211Z,11.07
2023-04-26T02:35:45.759Z,10.40
2023-04-26T02:35:58.372Z,10.55
2023-04-26T02:36:10.863Z,9.43
2023-04-26T02:36:23.379Z,9.10
2023-04-26T02:36:37.013Z,9.40
2023-04-26T02:36:49.584Z,9.48
2023-04-26T02:37:02.426Z,9.18
2023-04-26T02:37:14.949Z,7.75
2023-04-26T02:37:27.752Z,9.38
2023-04-26T02:37:41.355Z,10.35
2023-04-26T02:37:54.182Z,8.32
2023-04-26T02:38:08.198Z,9.00
2023-04-26T02:38:20.887Z,10.90
2023-04-26T02:38:35.126Z,11.32
2023-04-26T02:38:47.645Z,10.55
2023-04-26T02:39:00.430Z,9.30
2023-04-26T02:39:14.200Z,8.85
2023-04-26T02:39:26.708Z,10.18
2023-04-26T02:39:39.386Z,10.30
2023-04-26T02:39:51.962Z,11.23
2023-04-26T02:40:05.915Z,10.82
2023-04-26T02:40:18.611Z,9.77
2023-04-26T02:40:31.170Z,9.82
2023-04-26T02:40:44.695Z,10.13
2023-04-26T02:41:00.522Z,9.60
2023-04-26T02:41:13.044Z,9.90
2023-04-26T02:41:25.585Z,9.93
2023-04-26T02:41:38.358Z,12.13
2023-04-26T02:41:51.120Z,11.98
2023-04-26T02:42:03.939Z,11.15
2023-04-26T02:42:16.553Z,11.10
2023-04-26T02:42:30.142Z,12.43
2023-04-26T02:42:42.817Z,12.00
2023-04-26T02:42:55.375Z,10.85
2023-04-26T02:43:08.055Z,10.73
2023-04-26T02:43:20.549Z,12.05
2023-04-26T02:43:33.100Z,13.82
2023-04-26T02:43:45.715Z,13.35
2023-04-26T02:43:59.208Z,12.45
2023-04-26T02:44:11.840Z,11.25
2023-04-26T02:44:24.393Z,11.07
2023-04-26T02:44:37.650Z,12.35
2023-04-26T02:44:50.259Z,11.82
2023-04-26T02:45:02.878Z,10.20
2023-04-26T02:45:15.811Z,9.63
2023-04-26T02:45:28.335Z,8.65
2023-04-26T02:45:44.080Z,11.02
2023-04-26T02:45:58.763Z,11.73
2023-04-26T02:46:11.310Z,11.38
2023-04-26T02:46:23.877Z,12.38
2023-04-26T02:46:36.546Z,11.52
2023-04-26T02:46:49.334Z,10.02
2023-04-26T02:47:02.175Z,10.23
2023-04-26T02:47:16.956Z,11.05
2023-04-26T02:47:29.481Z,10.38
2023-04-26T02:47:42.158Z,10.60
2023-04-26T02:47:54.788Z,9.35
2023-04-26T02:48:07.444Z,10.25
2023-04-26T02:48:20.020Z,9.02
2023-04-26T02:48:33.491Z,8.77
2023-04-26T02:48:46.243Z,9.25
2023-04-26T02:48:59.057Z,9.32
2023-04-26T02:49:11.611Z,9.02
2023-04-26T02:49:24.204Z,10.40
2023-04-26T02:49:36.838Z,11.98
2023-04-26T02:49:49.628Z,11.68
2023-04-26T02:50:02.247Z,10.18
2023-04-26T02:50:15.807Z,8.73
2023-04-26T02:50:28.762Z,10.40
2023-04-26T02:50:41.541Z,11.60
2023-04-26T02:50:54.061Z,11.13
2023-04-26T02:51:06.803Z,9.77
2023-04-26T02:51:19.319Z,10.20
2023-04-26T02:51:33.988Z,9.57
2023-04-26T02:51:46.514Z,10.50
2023-04-26T02:51:59.019Z,10.43
2023-04-26T02:52:11.596Z,9.27
2023-04-26T02:52:24.154Z,8.88
2023-04-26T02:52:37.628Z,9.20
2023-04-26T02:52:50.184Z,7.90
2023-04-26T02:53:03.609Z,8.07
2023-04-26T02:53:18.693Z,9.68
2023-04-26T02:53:31.250Z,10.07
2023-04-26T02:53:43.801Z,10.52
2023-04-26T02:53:56.302Z,12.43
2023-04-26T02:54:08.824Z,13.57
2023-04-26T02:54:21.386Z,13.73
2023-04-26T02:54:33.981Z,11.63
2023-04-26T02:54:47.473Z,9.73
2023-04-26T02:55:01.059Z,9.50
2023-04-26T02:55:14.229Z,10.02
2023-04-26T02:55:26.801Z,11.20
2023-04-26T02:55:39.706Z,10.45
2023-04-26T02:55:52.328Z,10.35
2023-04-26T02:56:04.936Z,10.13
2023-04-26T02:56:19.467Z,8.90
2023-04-26T02:56:32.011Z,9.05
2023-04-26T02:56:44.515Z,11.02
2023-04-26T02:56:58.218Z,11.45
2023-04-26T02:57:11.701Z,12.35
2023-04-26T02:57:24.363Z,11.85
2023-04-26T02:57:36.909Z,9.60
2023-04-26T02:57:50.447Z,9.95
2023-04-26T02:58:03.030Z,10.35
2023-04-26T02:58:15.593Z,9.63
2023-04-26T02:58:28.184Z,11.65
2023-04-26T02:58:40.730Z,11.65
2023-04-26T02:58:53.394Z,10.40
2023-04-26T02:59:07.136Z,9.98
2023-04-26T02:59:19.684Z,11.40